createdAt,value
2019-05-14T00:00:41.668Z,959.39
2019-05-14T00:01:41.964Z,959.39
2019-05-14T00:02:41.370Z,959.40
2019-05-14T00:03:41.364Z,959.40
2019-05-14T00:04:39.245Z,959.38
2019-05-14T00:05:39.144Z,959.38
2019-05-14T00:06:39.043Z,959.33
2019-05-14T00:07:41.274Z,959.31
2019-05-14T00:08:38.963Z,959.28
2019-05-14T00:09:41.140Z,959.29
2019-05-14T00:10:38.643Z,959.31
2019-05-14T00:11:38.541Z,959.28
2019-05-14T00:12:38.441Z,959.29
2019-05-14T00:13:38.355Z,959.24
2019-05-14T00:14:40.341Z,959.25
2019-05-14T00:15:38.246Z,959.22
2019-05-14T00:16:38.041Z,959.21
2019-05-14T00:17:37.941Z,959.23
2019-05-14T00:18:37.853Z,959.17
2019-05-14T00:19:37.739Z,959.17
2019-05-14T00:20:37.638Z,959.18
2019-05-14T00:21:37.539Z,959.18
2019-05-14T00:22:37.540Z,959.16
2019-05-14T00:23:37.356Z,959.16
2019-05-14T00:24:37.240Z,959.13
2019-05-14T00:25:37.138Z,959.15
2019-05-14T00:26:37.037Z,959.12
2019-05-14T00:27:36.937Z,959.13
2019-05-14T00:28:36.857Z,959.12
2019-05-14T00:29:36.837Z,959.16
2019-05-14T00:30:36.639Z,959.13
2019-05-14T00:31:36.535Z,959.09
2019-05-14T00:32:36.436Z,959.13
2019-05-14T00:33:36.336Z,959.08
2019-05-14T00:34:36.247Z,959.06
2019-05-14T00:35:36.265Z,959.00
2019-05-14T00:36:36.032Z,959.02
2019-05-14T00:37:35.933Z,959.00
2019-05-14T00:38:35.833Z,958.95
2019-05-14T00:39:35.747Z,958.98
2019-05-14T00:40:35.632Z,958.96
2019-05-14T00:41:35.532Z,958.99
2019-05-14T00:42:35.431Z,958.98
2019-05-14T00:43:35.331Z,958.97
2019-05-14T00:44:35.244Z,958.97
2019-05-14T00:45:35.130Z,959.01
2019-05-14T00:46:35.028Z,959.00
2019-05-14T00:47:34.933Z,959.05
2019-05-14T00:48:34.831Z,959.00
2019-05-14T00:49:34.741Z,959.01
2019-05-14T00:50:34.634Z,959.00
2019-05-14T00:51:34.528Z,959.00
2019-05-14T00:52:34.430Z,958.94
2019-05-14T00:53:34.326Z,958.92
2019-05-14T00:54:34.241Z,958.92
2019-05-14T00:55:34.129Z,958.87
2019-05-14T00:56:34.026Z,958.84
2019-05-14T00:57:33.924Z,958.85
2019-05-14T00:58:33.828Z,958.82
2019-05-14T00:59:33.740Z,958.85
2019-05-14T01:00:33.624Z,958.82
2019-05-14T01:01:33.525Z,958.85
2019-05-14T01:02:33.424Z,958.79
2019-05-14T01:03:33.341Z,958.85
2019-05-14T01:04:33.239Z,958.83
2019-05-14T01:05:33.121Z,958.83
2019-05-14T01:06:33.021Z,958.85
2019-05-14T01:07:32.923Z,958.89
2019-05-14T01:08:32.823Z,958.89
2019-05-14T01:09:32.733Z,958.89
2019-05-14T01:10:32.622Z,958.92
2019-05-14T01:11:32.519Z,958.93
2019-05-14T01:12:32.425Z,958.93
2019-05-14T01:13:32.319Z,958.94
2019-05-14T01:14:32.219Z,958.93
2019-05-14T01:15:32.429Z,958.96
2019-05-14T01:16:32.055Z,958.94
2019-05-14T01:17:31.916Z,958.92
2019-05-14T01:18:32.405Z,958.89
2019-05-14T01:19:31.849Z,958.91
2019-05-14T01:20:32.060Z,958.91
2019-05-14T01:21:31.513Z,958.89
2019-05-14T01:22:31.711Z,958.89
2019-05-14T01:23:32.266Z,958.85
2019-05-14T01:24:32.244Z,958.86
2019-05-14T01:25:31.782Z,958.81
2019-05-14T01:26:31.168Z,958.82
2019-05-14T01:27:31.747Z,958.82
2019-05-14T01:28:32.165Z,958.78
2019-05-14T01:29:31.699Z,958.80
2019-05-14T01:30:31.967Z,958.80
2019-05-14T01:31:31.468Z,958.80
2019-05-14T01:32:31.514Z,958.80
2019-05-14T01:33:31.924Z,958.84
2019-05-14T01:34:32.469Z,958.83
2019-05-14T01:35:31.614Z,958.87
2019-05-14T01:36:31.865Z,958.83
2019-05-14T01:37:31.091Z,958.82
2019-05-14T01:38:31.470Z,958.87
2019-05-14T01:39:31.883Z,958.89
2019-05-14T01:40:31.542Z,958.86
2019-05-14T01:41:31.549Z,958.82
2019-05-14T01:42:29.411Z,958.85
2019-05-14T01:43:31.400Z,958.84
2019-05-14T01:44:29.209Z,958.85
2019-05-14T01:45:31.465Z,958.86
2019-05-14T01:46:29.009Z,958.85
2019-05-14T01:47:28.910Z,958.83
2019-05-14T01:48:31.119Z,958.87
2019-05-14T01:49:28.706Z,958.91
2019-05-14T01:50:28.622Z,958.87
2019-05-14T01:51:28.508Z,958.87
2019-05-14T01:52:28.519Z,958.87
2019-05-14T01:53:28.306Z,958.84
2019-05-14T01:54:28.207Z,958.80
2019-05-14T01:55:28.120Z,958.77
2019-05-14T01:56:28.008Z,958.80
2019-05-14T01:57:27.905Z,958.77
2019-05-14T01:58:27.812Z,958.75
2019-05-14T01:59:27.817Z,958.83
2019-05-14T02:00:27.623Z,958.81
2019-05-14T02:01:27.506Z,958.78
2019-05-14T02:02:27.405Z,958.81
2019-05-14T02:03:27.306Z,958.81
2019-05-14T02:04:27.206Z,958.81
2019-05-14T02:05:27.119Z,958.82
2019-05-14T02:06:27.109Z,958.79
2019-05-14T02:07:26.904Z,958.80
2019-05-14T02:08:26.805Z,958.82
2019-05-14T02:09:26.706Z,958.83
2019-05-14T02:10:26.608Z,958.80
2019-05-14T02:11:26.519Z,958.81
2019-05-14T02:12:26.405Z,958.80
2019-05-14T02:13:26.405Z,958.79
2019-05-14T02:14:26.202Z,958.80
2019-05-14T02:15:37.126Z,958.76
2019-05-14T02:16:26.017Z,958.78
2019-05-14T02:17:25.903Z,958.78
2019-05-14T02:18:25.803Z,958.75
2019-05-14T02:19:25.702Z,958.76
2019-05-14T02:20:25.765Z,958.79
2019-05-14T02:21:25.515Z,958.76
2019-05-14T02:22:25.401Z,958.76
2019-05-14T02:23:25.300Z,958.72
2019-05-14T02:24:25.201Z,958.72
2019-05-14T02:25:25.100Z,958.67
2019-05-14T02:26:25.013Z,958.73
2019-05-14T02:27:25.010Z,958.65
2019-05-14T02:28:24.797Z,958.65
2019-05-14T02:29:24.701Z,958.64
2019-05-14T02:30:33.493Z,958.64
2019-05-14T02:31:24.513Z,958.65
2019-05-14T02:32:24.401Z,958.63
2019-05-14T02:33:24.298Z,958.63
2019-05-14T02:34:24.296Z,958.62
2019-05-14T02:35:24.095Z,958.63
2019-05-14T02:36:24.007Z,958.65
2019-05-14T02:37:23.899Z,958.63
2019-05-14T02:38:23.796Z,958.61
2019-05-14T02:39:23.693Z,958.64
2019-05-14T02:40:23.592Z,958.63
2019-05-14T02:41:23.504Z,958.60
2019-05-14T02:42:23.684Z,958.62
2019-05-14T02:43:23.290Z,958.62
2019-05-14T02:44:23.203Z,958.63
2019-05-14T02:45:23.090Z,958.60
2019-05-14T02:46:23.004Z,958.61
2019-05-14T02:47:22.890Z,958.61
2019-05-14T02:48:22.799Z,958.58
2019-05-14T02:49:22.802Z,958.58
2019-05-14T02:50:22.586Z,958.57
2019-05-14T02:51:22.504Z,958.56
2019-05-14T02:52:22.387Z,958.55
2019-05-14T02:53:22.284Z,958.59
2019-05-14T02:54:22.188Z,958.59
2019-05-14T02:55:22.085Z,958.59
2019-05-14T02:56:22.111Z,958.58
2019-05-14T02:57:21.881Z,958.59
2019-05-14T02:58:21.780Z,958.63
2019-05-14T02:59:21.685Z,958.62
2019-05-14T03:00:21.582Z,958.61
2019-05-14T03:01:21.493Z,958.64
2019-05-14T03:02:21.480Z,958.67
2019-05-14T03:03:21.288Z,958.67
2019-05-14T03:04:21.181Z,958.67
2019-05-14T03:05:21.074Z,958.73
2019-05-14T03:06:20.987Z,958.80
2019-05-14T03:07:20.911Z,958.74
2019-05-14T03:08:20.775Z,958.80
2019-05-14T03:09:20.753Z,958.86
2019-05-14T03:10:20.680Z,958.91
2019-05-14T03:11:20.475Z,958.99
2019-05-14T03:12:20.386Z,958.98
2019-05-14T03:13:20.612Z,958.96
2019-05-14T03:14:20.190Z,958.99
2019-05-14T03:15:20.369Z,958.98
2019-05-14T03:16:30.086Z,958.92
2019-05-14T03:17:20.317Z,958.90
2019-05-14T03:18:20.102Z,958.96
2019-05-14T03:19:19.896Z,958.94
2019-05-14T03:20:19.890Z,958.94
2019-05-14T03:21:19.942Z,958.96
2019-05-14T03:22:26.821Z,958.97
2019-05-14T03:23:22.849Z,958.93
2019-05-14T03:24:19.757Z,958.92
2019-05-14T03:25:19.389Z,958.91
2019-05-14T03:26:19.912Z,958.90
2019-05-14T03:27:19.571Z,958.87
2019-05-14T03:28:19.937Z,958.86
2019-05-14T03:29:19.606Z,958.83
2019-05-14T03:30:22.868Z,958.83
2019-05-14T03:31:22.628Z,958.77
2019-05-14T03:32:22.500Z,958.73
2019-05-14T03:33:21.924Z,958.72
2019-05-14T03:34:22.047Z,958.74
2019-05-14T03:35:24.438Z,958.67
2019-05-14T03:36:25.663Z,958.72
2019-05-14T03:37:23.673Z,958.72
2019-05-14T03:38:19.671Z,958.73
2019-05-14T03:39:19.114Z,958.72
2019-05-14T03:40:19.453Z,958.72
2019-05-14T03:41:19.651Z,958.76
2019-05-14T03:42:19.285Z,958.71
2019-05-14T03:43:19.822Z,958.70
2019-05-14T03:44:19.758Z,958.67
2019-05-14T03:45:19.473Z,958.68
2019-05-14T03:46:20.287Z,958.67
2019-05-14T03:47:19.501Z,958.71
2019-05-14T03:48:19.104Z,958.69
2019-05-14T03:49:19.651Z,958.64
2019-05-14T03:50:19.163Z,958.64
2019-05-14T03:51:16.453Z,958.64
2019-05-14T03:52:19.624Z,958.59
2019-05-14T03:53:18.790Z,958.56
2019-05-14T03:54:19.231Z,958.57
2019-05-14T03:55:16.042Z,958.55
2019-05-14T03:56:19.021Z,958.52
2019-05-14T03:57:15.839Z,958.51
2019-05-14T03:58:20.618Z,958.49
2019-05-14T03:59:15.689Z,958.47
2019-05-14T04:00:18.722Z,958.49
2019-05-14T04:01:15.432Z,958.44
2019-05-14T04:02:15.334Z,958.46
2019-05-14T04:03:15.248Z,958.48
2019-05-14T04:04:15.142Z,958.47
2019-05-14T04:05:18.752Z,958.49
2019-05-14T04:06:14.928Z,958.48
2019-05-14T04:07:14.834Z,958.52
2019-05-14T04:08:14.744Z,958.51
2019-05-14T04:09:14.625Z,958.49
2019-05-14T04:10:14.527Z,958.49
2019-05-14T04:11:14.434Z,958.49
2019-05-14T04:12:14.337Z,958.50
2019-05-14T04:13:14.237Z,958.50
2019-05-14T04:14:14.126Z,958.53
2019-05-14T04:15:14.023Z,958.52
2019-05-14T04:16:13.923Z,958.54
2019-05-14T04:17:15.470Z,958.54
2019-05-14T04:18:13.733Z,958.55
2019-05-14T04:19:13.619Z,958.52
2019-05-14T04:20:13.517Z,958.50
2019-05-14T04:21:13.415Z,958.52
2019-05-14T04:22:13.315Z,958.50
2019-05-14T04:23:13.227Z,958.53
2019-05-14T04:24:13.120Z,958.54
2019-05-14T04:25:13.014Z,958.48
2019-05-14T04:26:12.913Z,958.51
2019-05-14T04:27:13.491Z,958.51
2019-05-14T04:28:12.726Z,958.49
2019-05-14T04:29:12.607Z,958.52
2019-05-14T04:30:12.508Z,958.48
2019-05-14T04:31:12.408Z,958.48
2019-05-14T04:32:12.369Z,958.47
2019-05-14T04:33:12.219Z,958.48
2019-05-14T04:34:12.109Z,958.48
2019-05-14T04:35:12.011Z,958.46
2019-05-14T04:36:11.910Z,958.45
2019-05-14T04:37:11.803Z,958.46
2019-05-14T04:38:11.714Z,958.49
2019-05-14T04:39:11.601Z,958.45
2019-05-14T04:40:11.603Z,958.44
2019-05-14T04:41:11.410Z,958.43
2019-05-14T04:42:11.298Z,958.42
2019-05-14T04:43:11.212Z,958.43
2019-05-14T04:44:11.098Z,958.41
2019-05-14T04:45:11.591Z,958.44
2019-05-14T04:46:11.048Z,958.46
2019-05-14T04:47:27.684Z,958.46
2019-05-14T04:48:27.950Z,958.45
2019-05-14T04:49:10.595Z,958.44
2019-05-14T04:50:10.950Z,958.47
2019-05-14T04:51:10.399Z,958.48
2019-05-14T04:52:10.381Z,958.50
2019-05-14T04:53:10.217Z,958.54
2019-05-14T04:54:10.213Z,958.53
2019-05-14T04:55:10.200Z,958.45
2019-05-14T04:56:10.210Z,958.45
2019-05-14T04:57:10.471Z,958.47
2019-05-14T04:58:10.208Z,958.49
2019-05-14T04:59:10.609Z,958.48
2019-05-14T05:00:12.093Z,958.49
2019-05-14T05:01:10.013Z,958.50
2019-05-14T05:02:09.810Z,958.53
2019-05-14T05:03:12.609Z,958.54
2019-05-14T05:04:09.680Z,958.56
2019-05-14T05:05:09.302Z,958.63
2019-05-14T05:06:09.879Z,958.72
2019-05-14T05:07:09.872Z,958.69
2019-05-14T05:08:09.109Z,958.66
2019-05-14T05:09:09.408Z,958.66
2019-05-14T05:10:10.119Z,958.64
2019-05-14T05:11:09.375Z,958.67
2019-05-14T05:12:09.282Z,958.66
2019-05-14T05:13:09.180Z,958.66
2019-05-14T05:14:08.964Z,958.70
2019-05-14T05:15:09.347Z,958.70
2019-05-14T05:16:10.021Z,958.70
2019-05-14T05:17:09.217Z,958.67
2019-05-14T05:18:09.583Z,958.72
2019-05-14T05:19:10.150Z,958.67
2019-05-14T05:20:09.858Z,958.65
2019-05-14T05:21:08.768Z,958.63
2019-05-14T05:22:08.029Z,958.69
2019-05-14T05:23:08.486Z,958.67
2019-05-14T05:24:09.228Z,958.69
2019-05-14T05:25:08.357Z,958.69
2019-05-14T05:26:09.114Z,958.74
2019-05-14T05:27:09.118Z,958.68
2019-05-14T05:28:08.831Z,958.76
2019-05-14T05:29:09.666Z,958.73
2019-05-14T05:30:08.443Z,958.70
2019-05-14T05:31:09.036Z,958.75
2019-05-14T05:32:08.468Z,958.76
2019-05-14T05:33:08.807Z,958.75
2019-05-14T05:34:08.730Z,958.89
2019-05-14T05:35:06.020Z,958.85
2019-05-14T05:36:06.024Z,958.79
2019-05-14T05:37:08.410Z,958.82
2019-05-14T05:38:05.722Z,958.88
2019-05-14T05:39:07.921Z,958.81
2019-05-14T05:40:05.526Z,958.86
2019-05-14T05:41:05.427Z,958.79
2019-05-14T05:42:05.326Z,958.73
2019-05-14T05:43:05.329Z,958.71
2019-05-14T05:44:05.143Z,958.74
2019-05-14T05:45:05.030Z,958.79
2019-05-14T05:46:04.934Z,958.70
2019-05-14T05:47:04.834Z,958.67
2019-05-14T05:48:04.745Z,958.70
2019-05-14T05:49:04.650Z,958.70
2019-05-14T05:50:04.537Z,958.67
2019-05-14T05:51:04.444Z,958.76
2019-05-14T05:52:04.344Z,958.68
2019-05-14T05:53:04.246Z,958.82
2019-05-14T05:54:04.154Z,958.65
2019-05-14T05:55:04.041Z,958.91
2019-05-14T05:56:03.944Z,958.63
2019-05-14T05:57:03.845Z,958.97
2019-05-14T05:58:03.745Z,959.02
2019-05-14T05:59:03.662Z,958.90
2019-05-14T06:00:03.552Z,958.73
2019-05-14T06:01:03.452Z,958.87
2019-05-14T06:02:03.352Z,958.93
2019-05-14T06:03:03.254Z,958.98
2019-05-14T06:04:03.157Z,958.89
2019-05-14T06:05:03.076Z,958.64
2019-05-14T06:06:02.973Z,959.23
2019-05-14T06:07:02.886Z,959.14
2019-05-14T06:08:02.762Z,958.59
2019-05-14T06:09:02.667Z,958.88
2019-05-14T06:10:02.579Z,958.73
2019-05-14T06:11:02.467Z,958.74
2019-05-14T06:12:02.369Z,958.60
2019-05-14T06:13:02.271Z,958.60
2019-05-14T06:14:02.175Z,958.66
2019-05-14T06:15:02.098Z,958.61
2019-05-14T06:16:01.980Z,958.65
2019-05-14T06:17:01.879Z,959.08
2019-05-14T06:18:13.928Z,959.14
2019-05-14T06:19:01.690Z,959.04
2019-05-14T06:20:01.607Z,959.47
2019-05-14T06:21:01.522Z,959.81
2019-05-14T06:22:04.161Z,959.62
2019-05-14T06:23:01.298Z,959.22
2019-05-14T06:24:03.018Z,959.03
2019-05-14T06:25:01.112Z,958.60
2019-05-14T06:26:01.008Z,958.76
2019-05-14T06:27:00.908Z,958.61
2019-05-14T06:28:00.807Z,958.62
2019-05-14T06:29:00.713Z,958.66
2019-05-14T06:30:00.625Z,958.73
2019-05-14T06:31:00.518Z,959.43
2019-05-14T06:32:00.418Z,958.74
2019-05-14T06:33:00.320Z,958.92
2019-05-14T06:34:00.225Z,958.73
2019-05-14T06:35:00.140Z,958.98
2019-05-14T06:36:00.030Z,959.22
2019-05-14T06:36:59.933Z,958.99
2019-05-14T06:37:59.836Z,958.72
2019-05-14T06:38:59.740Z,958.65
2019-05-14T06:39:59.655Z,958.73
2019-05-14T06:40:59.612Z,959.11
2019-05-14T06:41:59.448Z,958.59
2019-05-14T06:42:59.353Z,958.54
2019-05-14T06:43:59.296Z,958.55
2019-05-14T06:44:59.172Z,958.56
2019-05-14T06:45:59.063Z,958.89
2019-05-14T06:46:59.236Z,958.66
2019-05-14T06:47:59.274Z,958.90
2019-05-14T06:48:59.178Z,965.15
2019-05-14T06:49:59.223Z,966.05
2019-05-14T06:50:58.582Z,958.79
2019-05-14T06:51:59.240Z,966.41
2019-05-14T06:52:58.390Z,963.33
2019-05-14T06:53:58.774Z,958.77
2019-05-14T06:54:58.357Z,968.39
2019-05-14T06:55:58.761Z,968.36
2019-05-14T06:56:58.355Z,967.51
2019-05-14T06:57:58.481Z,958.59
2019-05-14T06:58:58.432Z,958.63
2019-05-14T06:59:58.885Z,958.55
2019-05-14T07:00:58.904Z,958.80
2019-05-14T07:01:58.024Z,958.71
2019-05-14T07:02:58.246Z,958.56
2019-05-14T07:03:58.118Z,958.55
2019-05-14T07:04:59.033Z,958.66
2019-05-14T07:05:59.341Z,958.57
2019-05-14T07:06:59.071Z,958.58
2019-05-14T07:07:59.745Z,958.59
2019-05-14T07:08:58.871Z,962.27
2019-05-14T07:09:58.196Z,958.80
2019-05-14T07:10:59.031Z,958.50
2019-05-14T07:11:58.530Z,958.48
2019-05-14T07:12:59.078Z,958.47
2019-05-14T07:13:58.100Z,959.02
2019-05-14T07:14:58.420Z,958.57
2019-05-14T07:15:58.379Z,958.47
2019-05-14T07:16:58.573Z,962.14
2019-05-14T07:17:58.278Z,958.61
2019-05-14T07:18:55.919Z,959.01
2019-05-14T07:19:58.056Z,964.40
2019-05-14T07:20:55.742Z,958.58
2019-05-14T07:21:58.102Z,958.53
2019-05-14T07:22:55.536Z,958.53
2019-05-14T07:23:55.444Z,958.59
2019-05-14T07:24:55.346Z,958.49
2019-05-14T07:25:55.270Z,958.53
2019-05-14T07:26:55.264Z,960.11
2019-05-14T07:27:55.059Z,958.92
2019-05-14T07:28:54.958Z,958.60
2019-05-14T07:29:54.880Z,958.58
2019-05-14T07:30:54.782Z,958.51
2019-05-14T07:31:54.672Z,958.42
2019-05-14T07:32:54.575Z,958.41
2019-05-14T07:33:54.586Z,958.42
2019-05-14T07:34:54.380Z,958.48
2019-05-14T07:35:54.313Z,958.45
2019-05-14T07:36:54.192Z,958.45
2019-05-14T07:37:54.095Z,958.47
2019-05-14T07:38:56.484Z,958.49
2019-05-14T07:39:53.900Z,958.48
2019-05-14T07:40:53.921Z,958.42
2019-05-14T07:41:53.703Z,958.48
2019-05-14T07:42:53.609Z,958.51
2019-05-14T07:43:53.510Z,958.57
2019-05-14T07:44:53.413Z,958.60
2019-05-14T07:45:53.328Z,961.12
2019-05-14T07:46:53.235Z,961.44
2019-05-14T07:47:53.121Z,958.70
2019-05-14T07:49:04.416Z,958.60
2019-05-14T07:49:52.929Z,958.78
2019-05-14T07:50:52.872Z,958.83
2019-05-14T07:51:52.738Z,958.67
2019-05-14T07:52:52.638Z,958.52
2019-05-14T07:53:52.545Z,958.53
2019-05-14T07:54:52.444Z,958.45
2019-05-14T07:55:52.364Z,958.41
2019-05-14T07:56:53.056Z,958.50
2019-05-14T07:57:52.163Z,958.46
2019-05-14T07:58:52.056Z,958.39
2019-05-14T07:59:51.961Z,958.49
2019-05-14T08:00:51.876Z,958.48
2019-05-14T08:01:51.766Z,958.49
2019-05-14T08:02:51.670Z,958.61
2019-05-14T08:03:51.573Z,958.60
2019-05-14T08:04:51.475Z,958.45
2019-05-14T08:05:51.394Z,958.42
2019-05-14T08:06:51.286Z,958.40
2019-05-14T08:07:51.186Z,958.39
2019-05-14T08:08:51.087Z,958.43
2019-05-14T08:09:50.993Z,958.41
2019-05-14T08:10:50.898Z,958.37
2019-05-14T08:11:50.811Z,958.42
2019-05-14T08:12:50.703Z,958.41
2019-05-14T08:13:50.607Z,958.46
2019-05-14T08:15:13.091Z,958.55
2019-05-14T08:15:50.414Z,958.65
2019-05-14T08:16:50.325Z,958.90
2019-05-14T08:17:50.218Z,958.97
2019-05-14T08:18:50.432Z,958.58
2019-05-14T08:19:50.022Z,958.33
2019-05-14T08:20:49.926Z,958.29
2019-05-14T08:21:49.842Z,958.38
2019-05-14T08:22:49.730Z,958.38
2019-05-14T08:23:49.634Z,958.31
2019-05-14T08:24:49.536Z,958.21
2019-05-14T08:25:49.449Z,958.23
2019-05-14T08:26:49.360Z,958.29
2019-05-14T08:27:49.250Z,958.31
2019-05-14T08:28:49.229Z,958.32
2019-05-14T08:29:49.055Z,958.31
2019-05-14T08:30:49.225Z,958.21
2019-05-14T08:31:48.962Z,958.21
2019-05-14T08:32:49.083Z,958.27
2019-05-14T08:33:49.166Z,958.29
2019-05-14T08:34:48.572Z,958.25
2019-05-14T08:35:48.971Z,958.43
2019-05-14T08:36:48.516Z,958.90
2019-05-14T08:37:49.204Z,958.51
2019-05-14T08:38:49.978Z,959.36
2019-05-14T08:39:48.812Z,958.28
2019-05-14T08:40:48.879Z,958.30
2019-05-14T08:41:58.581Z,958.36
2019-05-14T08:42:49.020Z,958.48
2019-05-14T08:43:48.894Z,958.16
2019-05-14T08:44:50.946Z,958.08
2019-05-14T08:45:48.692Z,958.07
2019-05-14T08:46:48.628Z,958.10
2019-05-14T08:47:48.298Z,958.15
2019-05-14T08:48:49.612Z,958.22
2019-05-14T08:49:50.496Z,958.29
2019-05-14T08:50:48.141Z,958.25
2019-05-14T08:51:49.380Z,958.32
2019-05-14T08:52:48.388Z,958.83
2019-05-14T08:53:49.819Z,958.65
2019-05-14T08:54:49.040Z,958.21
2019-05-14T08:55:48.732Z,958.38
2019-05-14T08:56:48.884Z,958.77
2019-05-14T08:57:48.709Z,958.84
2019-05-14T08:58:49.108Z,958.92
2019-05-14T08:59:48.610Z,958.83
2019-05-14T09:00:48.096Z,958.93
2019-05-14T09:02:00.828Z,958.98
2019-05-14T09:02:48.391Z,958.98
2019-05-14T09:03:45.788Z,958.89
2019-05-14T09:04:52.639Z,958.88
2019-05-14T09:05:45.597Z,958.99
2019-05-14T09:06:45.521Z,958.96
2019-05-14T09:07:45.414Z,959.02
2019-05-14T09:08:45.317Z,958.93
2019-05-14T09:09:45.224Z,958.90
2019-05-14T09:10:45.133Z,958.05
2019-05-14T09:11:46.628Z,958.88
2019-05-14T09:12:44.947Z,958.91
2019-05-14T09:13:44.855Z,958.98
2019-05-14T09:14:44.769Z,958.80
2019-05-14T09:15:44.668Z,958.17
2019-05-14T09:16:47.686Z,958.13
2019-05-14T09:17:44.485Z,958.19
2019-05-14T09:18:44.395Z,958.21
2019-05-14T09:19:57.600Z,958.16
2019-05-14T09:20:44.209Z,958.10
2019-05-14T09:21:44.126Z,958.15
2019-05-14T09:22:44.040Z,958.07
2019-05-14T09:23:43.934Z,958.02
2019-05-14T09:24:43.843Z,958.09
2019-05-14T09:25:47.001Z,957.96
2019-05-14T09:26:43.661Z,958.05
2019-05-14T09:27:43.580Z,958.16
2019-05-14T09:28:43.477Z,958.16
2019-05-14T09:29:43.380Z,958.31
2019-05-14T09:30:43.286Z,958.43
2019-05-14T09:31:43.199Z,958.20
2019-05-14T09:32:43.134Z,958.11
2019-05-14T09:33:43.023Z,958.92
2019-05-14T09:34:42.917Z,958.92
2019-05-14T09:35:42.822Z,958.87
2019-05-14T09:36:42.725Z,958.86
2019-05-14T09:37:42.648Z,959.14
2019-05-14T09:38:42.886Z,958.25
2019-05-14T09:39:42.448Z,958.34
2019-05-14T09:40:42.352Z,958.95
2019-05-14T09:41:42.258Z,958.17
2019-05-14T09:42:42.182Z,958.02
2019-05-14T09:43:42.074Z,957.99
2019-05-14T09:44:41.981Z,957.91
2019-05-14T09:45:41.890Z,957.88
2019-05-14T09:46:41.798Z,957.94
2019-05-14T09:47:47.520Z,957.98
2019-05-14T09:48:41.607Z,958.00
2019-05-14T09:49:41.514Z,957.91
2019-05-14T09:50:41.423Z,957.86
2019-05-14T09:51:41.335Z,957.83
2019-05-14T09:52:41.249Z,958.74
2019-05-14T09:53:41.142Z,958.82
2019-05-14T09:54:43.977Z,958.78
2019-05-14T09:55:40.957Z,958.76
2019-05-14T09:56:40.862Z,958.77
2019-05-14T09:57:40.786Z,958.86
2019-05-14T09:58:40.672Z,958.90
2019-05-14T09:59:40.598Z,958.29
2019-05-14T10:00:40.485Z,959.01
2019-05-14T10:01:40.394Z,957.93
2019-05-14T10:02:40.313Z,957.74
2019-05-14T10:03:40.207Z,957.85
2019-05-14T10:04:40.132Z,957.89
2019-05-14T10:05:40.021Z,957.96
2019-05-14T10:06:39.929Z,957.95
2019-05-14T10:07:39.966Z,957.90
2019-05-14T10:08:39.745Z,957.92
2019-05-14T10:09:39.654Z,957.91
2019-05-14T10:10:40.071Z,957.95
2019-05-14T10:11:39.467Z,957.87
2019-05-14T10:12:51.203Z,957.76
2019-05-14T10:13:39.572Z,957.86
2019-05-14T10:14:39.531Z,957.83
2019-05-14T10:15:39.214Z,957.91
2019-05-14T10:16:39.002Z,958.00
2019-05-14T10:17:39.419Z,957.97
2019-05-14T10:18:38.841Z,957.90
2019-05-14T10:19:39.517Z,958.58
2019-05-14T10:20:45.473Z,958.09
2019-05-14T10:21:38.942Z,957.89
2019-05-14T10:22:39.862Z,957.84
2019-05-14T10:23:38.874Z,958.01
2019-05-14T10:24:38.756Z,958.46
2019-05-14T10:25:41.783Z,958.12
2019-05-14T10:26:39.468Z,958.46
2019-05-14T10:27:37.979Z,958.70
2019-05-14T10:28:41.293Z,958.70
2019-05-14T10:29:39.397Z,958.50
2019-05-14T10:30:37.700Z,958.45
2019-05-14T10:31:39.542Z,957.83
2019-05-14T10:32:41.330Z,957.82
2019-05-14T10:33:37.432Z,957.86
2019-05-14T10:34:37.327Z,957.79
2019-05-14T10:35:39.116Z,957.73
2019-05-14T10:36:37.140Z,957.76
2019-05-14T10:37:39.797Z,957.60
2019-05-14T10:38:38.826Z,957.61
2019-05-14T10:39:39.167Z,957.63
2019-05-14T10:40:38.538Z,957.55
2019-05-14T10:41:38.516Z,957.71
2019-05-14T10:42:39.974Z,957.66
2019-05-14T10:43:38.971Z,958.25
2019-05-14T10:44:38.759Z,958.18
2019-05-14T10:45:38.523Z,958.17
2019-05-14T10:46:38.405Z,958.21
2019-05-14T10:47:38.665Z,958.16
2019-05-14T10:48:36.072Z,957.80
2019-05-14T10:49:38.481Z,958.17
2019-05-14T10:50:52.229Z,957.94
2019-05-14T10:51:35.745Z,957.76
2019-05-14T10:52:35.650Z,957.87
2019-05-14T10:53:35.571Z,957.82
2019-05-14T10:54:35.463Z,957.70
2019-05-14T10:55:35.374Z,957.67
2019-05-14T10:56:35.395Z,957.64
2019-05-14T10:57:35.184Z,957.55
2019-05-14T10:58:35.104Z,957.55
2019-05-14T10:59:34.999Z,957.49
2019-05-14T11:00:34.905Z,957.63
2019-05-14T11:01:34.812Z,957.52
2019-05-14T11:02:34.719Z,957.52
2019-05-14T11:03:34.742Z,957.52
2019-05-14T11:04:34.752Z,957.55
2019-05-14T11:05:34.437Z,957.85
2019-05-14T11:06:34.346Z,957.68
2019-05-14T11:07:34.253Z,957.86
2019-05-14T11:08:34.171Z,957.87
2019-05-14T11:09:34.063Z,957.83
2019-05-14T11:10:34.086Z,957.73
2019-05-14T11:11:33.876Z,957.70
2019-05-14T11:12:33.789Z,957.31
2019-05-14T11:13:33.704Z,957.34
2019-05-14T11:14:33.631Z,957.54
2019-05-14T11:15:33.503Z,957.53
2019-05-14T11:16:33.408Z,957.43
2019-05-14T11:17:33.317Z,957.19
2019-05-14T11:18:33.239Z,957.51
2019-05-14T11:19:33.133Z,957.52
2019-05-14T11:20:33.038Z,957.61
2019-05-14T11:21:32.947Z,957.54
2019-05-14T11:22:32.858Z,957.65
2019-05-14T11:23:32.779Z,957.64
2019-05-14T11:24:32.792Z,957.66
2019-05-14T11:25:32.600Z,957.67
2019-05-14T11:26:32.489Z,957.32
2019-05-14T11:27:32.396Z,957.10
2019-05-14T11:28:32.316Z,957.00
2019-05-14T11:29:32.212Z,956.92
2019-05-14T11:30:32.122Z,956.95
2019-05-14T11:31:34.174Z,956.90
2019-05-14T11:32:31.939Z,956.81
2019-05-14T11:33:31.864Z,956.99
2019-05-14T11:34:31.758Z,957.04
2019-05-14T11:35:31.667Z,957.08
2019-05-14T11:36:31.587Z,957.08
2019-05-14T11:37:31.481Z,957.14
2019-05-14T11:38:37.299Z,957.10
2019-05-14T11:39:31.312Z,957.12
2019-05-14T11:40:31.205Z,957.11
2019-05-14T11:41:31.112Z,957.15
2019-05-14T11:42:31.635Z,957.19
2019-05-14T11:43:30.926Z,957.17
2019-05-14T11:44:30.846Z,957.18
2019-05-14T11:45:30.737Z,957.11
2019-05-14T11:46:44.331Z,957.03
2019-05-14T11:47:30.551Z,956.90
2019-05-14T11:48:30.483Z,957.22
2019-05-14T11:49:30.375Z,957.25
2019-05-14T11:50:30.269Z,957.16
2019-05-14T11:51:58.957Z,957.25
2019-05-14T11:52:30.080Z,957.24
2019-05-14T11:53:29.984Z,957.25
2019-05-14T11:54:29.905Z,957.35
2019-05-14T11:55:29.793Z,957.32
2019-05-14T11:56:29.697Z,957.31
2019-05-14T11:57:29.602Z,957.26
2019-05-14T11:58:29.619Z,957.24
2019-05-14T11:59:29.424Z,957.18
2019-05-14T12:00:29.657Z,957.10
2019-05-14T12:01:29.854Z,957.10
2019-05-14T12:02:29.187Z,956.96
2019-05-14T12:03:29.028Z,956.95
2019-05-14T12:04:28.957Z,956.91
2019-05-14T12:05:30.441Z,956.94
2019-05-14T12:06:30.511Z,957.20
2019-05-14T12:07:28.655Z,957.28
2019-05-14T12:08:28.893Z,956.88
2019-05-14T12:09:28.529Z,957.23
2019-05-14T12:10:29.270Z,957.28
2019-05-14T12:11:29.044Z,957.19
2019-05-14T12:12:28.852Z,957.21
2019-05-14T12:13:32.116Z,957.24
2019-05-14T12:14:27.989Z,957.25
2019-05-14T12:15:27.880Z,956.95
2019-05-14T12:16:29.147Z,956.87
2019-05-14T12:17:29.498Z,956.88
2019-05-14T12:18:29.208Z,956.78
2019-05-14T12:19:28.424Z,956.76
2019-05-14T12:20:29.632Z,957.02
2019-05-14T12:21:28.861Z,957.09
2019-05-14T12:22:28.638Z,957.11
2019-05-14T12:23:29.624Z,957.05
2019-05-14T12:24:29.096Z,957.15
2019-05-14T12:25:29.289Z,957.11
2019-05-14T12:26:28.258Z,957.14
2019-05-14T12:27:26.756Z,957.09